Time;durP1;ratioP1;P1;durP2;ratioP2;P2;SDS_P1;SDS_P2;PMS_P1;PMS_P2;Temp;Humidity;BMP_temperature;BMP_pressure;BME280_temperature;BME280_humidity;BME280_pressure;Samples;Min_cycle;Max_cycle;Signal;HPM_P1;HPM_P2
2024/02/29 00:02:25;;;;;;;29.10;17.20;;;;;;;6.57;96.96;99137.45;434015;1256;110776;-41
2024/02/29 00:12:32;;;;;;;27.20;17.20;;;;;;;6.50;97.00;99137.58;433937;1256;110066;-39
2024/02/29 00:22:39;;;;;;;33.20;20.40;;;;;;;6.45;96.96;99130.66;433992;1260;99388;-39
2024/02/29 00:42:53;;;;;;;37.40;21.00;;;;;;;6.41;97.25;99147.08;433915;1260;98856;-40
2024/02/29 00:53:00;;;;;;;42.30;21.90;;;;;;;6.48;97.41;99134.52;433966;1261;111989;-39
2024/02/29 01:13:10;;;;;;;37.80;20.10;;;;;;;6.27;97.09;99131.45;434040;1260;99254;-40
2024/02/29 01:23:18;;;;;;;34.80;20.00;;;;;;;6.24;97.18;99125.08;434001;1262;108257;-40
2024/02/29 01:33:24;;;;;;;30.80;17.30;;;;;;;6.26;97.30;99120.70;433996;1260;99221;-41
2024/02/29 01:43:32;;;;;;;31.20;19.20;;;;;;;6.30;97.47;99115.02;434081;1261;112846;-40
2024/02/29 01:53:40;;;;;;;35.60;19.40;;;;;;;6.38;97.49;99116.10;433976;1260;109298;-41
2024/02/29 02:03:47;;;;;;;31.80;18.10;;;;;;;6.42;97.38;99116.98;434030;1261;98052;-40
2024/02/29 02:13:54;;;;;;;33.60;19.00;;;;;;;6.47;97.42;99113.25;434024;1256;108520;-39
2024/02/29 02:24:01;;;;;;;49.10;22.70;;;;;;;6.44;97.65;99112.84;434545;1256;99163;-40
2024/02/29 02:34:08;;;;;;;38.90;21.00;;;;;;;6.44;97.57;99113.08;433971;1256;111974;-40
2024/02/29 02:44:15;;;;;;;34.70;20.50;;;;;;;6.42;97.33;99102.28;433951;1256;107050;-40
2024/02/29 02:54:21;;;;;;;32.80;19.40;;;;;;;6.43;97.44;99094.13;433876;1260;99227;-40
2024/02/29 03:04:28;;;;;;;35.70;19.70;;;;;;;6.44;97.53;99088.59;433919;1260;109397;-40
2024/02/29 03:14:35;;;;;;;26.70;16.60;;;;;;;6.44;97.54;99079.45;433869;1256;99260;-40
2024/02/29 03:34:47;;;;;;;32.90;16.30;;;;;;;6.16;97.56;99090.48;433972;1256;108102;-40
2024/02/29 03:44:54;;;;;;;28.00;15.10;;;;;;;6.09;97.83;99088.84;433965;1259;98844;-40
2024/02/29 03:55:03;;;;;;;41.10;18.90;;;;;;;6.09;97.89;99087.63;433899;1261;108536;-40
2024/02/29 04:05:10;;;;;;;31.80;18.20;;;;;;;6.08;97.78;99076.42;433959;1261;98867;-40
2024/02/29 04:15:16;;;;;;;34.60;17.80;;;;;;;6.10;97.98;99070.54;433763;1256;526427;-39
2024/02/29 04:25:23;;;;;;;34.40;18.80;;;;;;;6.23;98.44;99065.52;433985;1256;107865;-39
2024/02/29 04:35:30;;;;;;;38.00;18.90;;;;;;;6.39;98.42;99070.65;433916;1260;99231;-40
2024/02/29 04:45:38;;;;;;;58.40;25.10;;;;;;;6.43;98.32;99071.52;434017;1260;107186;-40
2024/02/29 05:05:52;;;;;;;43.90;24.40;;;;;;;6.32;98.18;99060.69;434079;1256;111364;-40
2024/02/29 05:15:59;;;;;;;49.40;24.30;;;;;;;6.41;98.36;99058.98;433917;1256;107997;-40
2024/02/29 05:26:07;;;;;;;48.50;24.70;;;;;;;6.38;98.10;99056.83;433955;1259;99326;-40
2024/02/29 05:36:16;;;;;;;49.70;24.10;;;;;;;6.40;98.43;99063.47;434081;1261;107944;-40
2024/02/29 05:46:23;;;;;;;52.50;26.10;;;;;;;6.41;98.14;99063.96;434036;1256;97994;-40
2024/02/29 05:56:30;;;;;;;61.20;28.40;;;;;;;6.47;98.34;99072.40;434071;1260;111355;-40
2024/02/29 06:06:38;;;;;;;68.50;32.40;;;;;;;6.52;98.52;99070.97;433854;1260;108148;-39
2024/02/29 06:16:45;;;;;;;57.10;28.00;;;;;;;6.50;98.39;99062.23;433980;1261;99332;-39
2024/02/29 06:26:51;;;;;;;58.90;25.70;;;;;;;6.51;98.35;99052.33;433880;1261;107859;-40
2024/02/29 06:36:59;;;;;;;54.30;26.10;;;;;;;6.61;98.69;99055.09;433786;1260;98081;-40
2024/02/29 06:47:06;;;;;;;49.00;26.60;;;;;;;6.66;98.68;99046.85;433993;1261;112817;-40
2024/02/29 06:57:12;;;;;;;52.70;26.10;;;;;;;6.71;98.69;99046.63;433907;1261;107851;-40
2024/02/29 07:17:25;;;;;;;56.60;29.20;;;;;;;6.77;98.87;99059.27;434039;1256;108736;-39
2024/02/29 07:27:33;;;;;;;45.10;24.10;;;;;;;6.76;98.81;99060.59;434029;1256;98830;-39
2024/02/29 07:37:41;;;;;;;45.50;22.80;;;;;;;6.81;98.81;99055.73;433988;1261;110910;-40
2024/02/29 07:47:48;;;;;;;48.60;23.90;;;;;;;6.86;98.74;99051.79;434000;1256;109340;-39
2024/02/29 08:08:03;;;;;;;79.10;30.10;;;;;;;6.97;98.87;99042.91;433961;1261;107794;-40
2024/02/29 08:18:10;;;;;;;41.30;25.70;;;;;;;7.05;98.78;99037.87;433906;1262;98851;-39
2024/02/29 08:28:18;;;;;;;40.30;22.90;;;;;;;7.17;98.76;99031.29;434022;1260;111138;-39
2024/02/29 08:38:25;;;;;;;44.10;24.40;;;;;;;7.39;99.04;99027.66;433824;1257;109304;-38
2024/02/29 08:48:32;;;;;;;45.70;26.00;;;;;;;7.46;99.27;99023.05;434081;1262;99184;-40
2024/02/29 08:58:39;;;;;;;47.20;25.00;;;;;;;7.65;99.11;99016.73;433928;1260;107042;-39
2024/02/29 09:08:48;;;;;;;48.90;26.00;;;;;;;7.85;98.74;99012.69;433925;1268;99259;-40
2024/02/29 09:18:56;;;;;;;47.40;27.60;;;;;;;8.11;98.60;99006.20;433930;1260;110746;-39
2024/02/29 09:29:06;;;;;;;49.40;27.80;;;;;;;8.32;98.70;99010.52;433885;1261;108448;-40
2024/02/29 09:39:13;;;;;;;53.10;30.70;;;;;;;8.46;98.68;99004.66;434019;1256;99349;-40
2024/02/29 09:49:20;;;;;;;48.30;26.70;;;;;;;8.64;98.33;98998.41;433891;1260;108155;-40
2024/02/29 09:59:30;;;;;;;41.20;24.30;;;;;;;8.94;98.02;98989.94;433784;1261;99250;-40
2024/02/29 10:09:37;;;;;;;43.20;27.10;;;;;;;9.15;97.93;98983.02;433971;1262;111162;-42
2024/02/29 10:29:57;;;;;;;39.80;23.20;;;;;;;9.79;97.44;98954.79;433881;1262;99262;-39
2024/02/29 10:40:03;;;;;;;42.00;24.10;;;;;;;10.23;97.08;98941.02;433944;1260;108808;-39
2024/02/29 11:00:26;;;;;;;38.40;22.10;;;;;;;10.93;95.73;98891.22;433882;1261;109739;-40
2024/02/29 11:10:33;;;;;;;44.80;23.60;;;;;;;11.31;95.90;98880.46;433925;1269;107252;-40
2024/02/29 11:40:57;;;;;;;45.50;26.20;;;;;;;12.48;91.70;98830.38;434035;1269;98260;-40
2024/02/29 11:51:03;;;;;;;44.60;28.10;;;;;;;12.20;89.59;98822.20;433990;1259;111970;-40
2024/02/29 12:11:18;;;;;;;37.90;25.10;;;;;;;12.38;88.89;98794.17;434170;1257;99256;-40
2024/02/29 12:21:25;;;;;;;48.80;26.80;;;;;;;12.65;87.36;98783.89;433966;1260;108391;-40
2024/02/29 12:31:33;;;;;;;48.20;27.80;;;;;;;12.69;86.64;98778.61;433956;1260;98002;-40
2024/02/29 12:41:43;;;;;;;50.90;25.80;;;;;;;12.89;87.00;98764.06;433837;1260;111941;-40
2024/02/29 12:51:50;;;;;;;41.20;27.50;;;;;;;12.98;86.19;98757.72;433969;1260;109592;-40
2024/02/29 13:12:07;;;;;;;44.10;28.30;;;;;;;12.72;85.27;98745.44;433804;1269;107861;-40
2024/02/29 13:22:14;;;;;;;41.20;28.10;;;;;;;12.53;84.33;98738.33;434125;1261;97994;-40
2024/02/29 13:42:28;;;;;;;44.50;25.10;;;;;;;12.51;84.56;98728.16;434069;1257;108253;-39
2024/02/29 13:52:38;;;;;;;45.30;28.70;;;;;;;12.41;85.02;98719.93;433937;1261;99346;-40
2024/02/29 14:02:45;;;;;;;47.50;29.10;;;;;;;12.21;83.79;98712.89;434042;1261;106896;-40
2024/02/29 14:12:52;;;;;;;48.90;30.10;;;;;;;12.03;84.18;98709.22;434092;1261;98806;-40
2024/02/29 14:22:59;;;;;;;53.10;29.80;;;;;;;11.84;84.18;98701.17;434061;1261;111622;-40
2024/02/29 14:33:04;;;;;;;61.50;35.50;;;;;;;11.81;84.54;98688.49;433923;1261;109396;-40
2024/02/29 14:43:12;;;;;;;49.10;29.30;;;;;;;11.92;84.54;98679.45;433833;1269;99335;-39
2024/02/29 14:53:19;;;;;;;46.20;28.90;;;;;;;11.96;84.66;98687.36;434034;1260;107427;-39
2024/02/29 15:03:28;;;;;;;54.70;33.20;;;;;;;11.77;84.11;98665.34;433925;1261;98053;-40
2024/02/29 15:13:35;;;;;;;51.00;29.50;;;;;;;11.53;83.85;98662.35;433885;1260;111370;-40
2024/02/29 15:23:42;;;;;;;54.60;31.30;;;;;;;11.34;84.45;98661.27;433604;1267;108063;-39
2024/02/29 15:43:56;;;;;;;51.90;31.10;;;;;;;10.81;84.98;98662.36;433956;1257;107074;-40
2024/02/29 15:54:03;;;;;;;67.70;34.20;;;;;;;10.56;85.27;98659.29;433901;1271;99216;-40
2024/02/29 16:04:10;;;;;;;75.40;38.90;;;;;;;10.27;85.83;98655.25;434056;1261;112285;-40
2024/02/29 16:14:18;;;;;;;73.30;39.80;;;;;;;10.01;86.11;98658.31;432870;1256;1296495;-41
2024/02/29 16:24:25;;;;;;;74.40;39.30;;;;;;;9.80;86.59;98653.96;433920;1261;99224;-39
2024/02/29 16:44:42;;;;;;;81.30;41.40;;;;;;;9.44;87.76;98643.79;433844;1261;99246;-40
2024/02/29 17:04:59;;;;;;;89.20;45.50;;;;;;;9.29;88.60;98631.70;433918;1256;108335;-40
2024/02/29 17:15:04;;;;;;;87.80;43.60;;;;;;;9.16;88.77;98630.34;433925;1261;99221;-40
2024/02/29 17:25:11;;;;;;;72.40;40.30;;;;;;;9.10;89.28;98627.33;434078;1256;107902;-40
2024/02/29 17:35:20;;;;;;;84.30;43.80;;;;;;;9.07;89.55;98621.12;433865;1260;99286;-41
2024/02/29 17:45:27;;;;;;;103.60;55.10;;;;;;;9.08;89.59;98616.89;433943;1260;111208;-41
2024/02/29 17:55:34;;;;;;;101.60;53.30;;;;;;;9.08;89.87;98612.50;433847;1256;106839;-40
2024/02/29 18:05:40;;;;;;;109.40;52.10;;;;;;;8.96;90.00;98612.88;433956;1260;99237;-40
2024/02/29 18:15:49;;;;;;;99.00;51.20;;;;;;;8.87;90.14;98610.53;433744;1261;108587;-41
2024/02/29 18:25:57;;;;;;;96.90;48.40;;;;;;;8.85;90.40;98602.13;433889;1260;99291;-40
2024/02/29 18:36:05;;;;;;;92.60;47.50;;;;;;;8.83;90.61;98599.48;433928;1261;111565;-41
2024/02/29 18:46:12;;;;;;;84.70;43.80;;;;;;;8.84;90.72;98595.92;433783;1260;107413;-40
2024/02/29 18:56:20;;;;;;;91.30;45.10;;;;;;;8.81;90.81;98591.79;433873;1260;99234;-41
2024/02/29 19:06:27;;;;;;;86.40;45.40;;;;;;;8.75;90.99;98588.96;433772;1260;108083;-41
2024/02/29 19:16:38;;;;;;;88.80;47.50;;;;;;;8.59;91.22;98582.06;433897;1260;99253;-40
2024/02/29 19:26:46;;;;;;;74.30;41.00;;;;;;;8.47;91.43;98577.63;433926;1256;111741;-40
2024/02/29 19:36:54;;;;;;;77.70;39.30;;;;;;;8.39;91.51;98571.42;433944;1256;107620;-40
2024/02/29 19:57:08;;;;;;;79.90;41.50;;;;;;;8.22;91.75;98543.63;433787;1256;108096;-40
2024/02/29 20:17:22;;;;;;;85.30;44.80;;;;;;;8.04;92.13;98518.30;433915;1260;110541;-41
2024/02/29 20:37:35;;;;;;;87.20;46.80;;;;;;;7.89;92.45;98495.95;434012;1257;99256;-44
2024/02/29 20:47:43;;;;;;;102.10;50.70;;;;;;;7.85;92.46;98485.17;433980;1256;108355;-40
2024/02/29 20:57:50;;;;;;;116.00;51.20;;;;;;;7.81;92.57;98473.53;433869;1256;99285;-40
2024/02/29 21:07:57;;;;;;;108.10;51.00;;;;;;;7.72;92.83;98469.03;433831;1256;112160;-40
2024/02/29 21:18:03;;;;;;;103.80;52.70;;;;;;;7.63;92.84;98458.70;433861;1260;108270;-39
2024/02/29 21:28:12;;;;;;;90.00;47.10;;;;;;;7.57;93.00;98453.33;433848;1260;99333;-40
2024/02/29 21:38:19;;;;;;;96.30;49.40;;;;;;;7.51;93.09;98443.41;433956;1256;108387;-40
2024/02/29 21:48:26;;;;;;;92.30;49.60;;;;;;;7.48;93.33;98435.02;433924;1256;97989;-40
2024/02/29 21:58:33;;;;;;;93.40;48.90;;;;;;;7.42;93.23;98421.91;433945;1260;112239;-39
2024/02/29 22:08:40;;;;;;;105.70;53.60;;;;;;;7.38;93.51;98420.36;433845;1256;108254;-41
2024/02/29 22:18:48;;;;;;;107.60;51.10;;;;;;;7.37;93.60;98405.77;433922;1261;99321;-40
2024/02/29 22:28:55;;;;;;;95.00;50.80;;;;;;;7.32;93.72;98395.91;433854;1256;107225;-40
2024/02/29 22:49:08;;;;;;;125.30;59.50;;;;;;;7.20;93.95;98371.61;433894;1260;111709;-41
2024/02/29 22:59:15;;;;;;;99.70;53.50;;;;;;;7.10;93.89;98355.64;433775;1256;107816;-40
2024/02/29 23:09:21;;;;;;;108.20;51.10;;;;;;;7.08;94.01;98342.85;434035;1260;99247;-38
2024/02/29 23:19:28;;;;;;;100.60;50.60;;;;;;;7.09;94.20;98332.86;433781;1260;108479;-40
2024/02/29 23:29:36;;;;;;;98.10;48.70;;;;;;;7.13;94.38;98327.67;433778;1262;99343;-40
2024/02/29 23:39:43;;;;;;;104.30;55.20;;;;;;;7.12;94.34;98319.38;433907;1260;112064;-40
2024/02/29 23:49:50;;;;;;;106.00;55.00;;;;;;;7.12;94.54;98317.64;433842;1256;107655;-40
2024/02/29 23:59:57;;;;;;;107.40;54.20;;;;;;;7.13;94.63;98307.17;433978;1258;99260;-40
